Cedarville, New York
Current Conditions -  °F | °C
As of 10:53 PM on Sunday 25 Jan 2015 (Local Time) from KRME Reporting Station
Clear Clear  
Wind Chill: -9°   Ceiling: Unl
Heat Index:   Visibility: 10mi
Dew Point: -5°   Wind: 5mph
Humidity: 75%   Direction: 150°SSE
Pressure: 30.1"   Gusts: NA
Location:  42.9693°N, 75.0798°W
Report Text: KRME 260353Z 15004KT 10SM CLR M17/M21 A3010 RMK AO2 SLP201 T11721206
Loading
Personal Weather Stations






























Interactive Weather Map New forecast layout! Learn more

10-Day Weather Forecast

Advertisements
Track Severe Weather on mobile